Time;durP1;ratioP1;P1;durP2;ratioP2;P2;SDS_P1;SDS_P2;PMS_P1;PMS_P2;Temp;Humidity;BMP_temperature;BMP_pressure;BME280_temperature;BME280_humidity;BME280_pressure;Samples;Min_cycle;Max_cycle;Signal;HPM_P1;HPM_P2
2023/04/20 00:02:20;;;;;;;2.55;2.03;;;15.40;96.70;;;;;;4962381;28;20047;-73
2023/04/20 00:04:48;;;;;;;3.75;2.08;;;15.50;96.70;;;;;;4961183;28;20639;-72
2023/04/20 00:07:17;;;;;;;2.20;1.90;;;15.50;96.70;;;;;;4961430;28;20059;-72
2023/04/20 00:09:45;;;;;;;3.80;2.17;;;15.50;96.70;;;;;;4959431;28;20039;-72
2023/04/20 00:12:13;;;;;;;3.75;2.15;;;15.50;96.70;;;;;;4963132;28;20759;-73
2023/04/20 00:14:41;;;;;;;2.53;1.65;;;15.40;96.70;;;;;;4982706;28;20434;-72
2023/04/20 00:17:08;;;;;;;2.47;1.90;;;15.20;96.70;;;;;;4962401;28;20043;-73
2023/04/20 00:19:39;;;;;;;2.63;2.13;;;15.20;96.70;;;;;;4961939;28;20058;-72
2023/04/20 00:22:07;;;;;;;3.10;2.10;;;15.20;96.70;;;;;;4961781;28;20042;-73
2023/04/20 00:24:35;;;;;;;2.65;1.65;;;15.30;96.70;;;;;;4961548;28;20066;-73
2023/04/20 00:27:03;;;;;;;2.35;1.80;;;15.30;96.70;;;;;;4963174;28;20401;-73
2023/04/20 00:29:31;;;;;;;3.35;1.98;;;15.10;96.70;;;;;;4963308;28;20042;-73
2023/04/20 00:31:59;;;;;;;2.28;2.05;;;15.00;96.70;;;;;;4963024;28;20560;-73
2023/04/20 00:34:27;;;;;;;2.40;1.90;;;15.00;96.70;;;;;;4945756;28;21431;-73
2023/04/20 00:36:57;;;;;;;3.75;1.90;;;15.10;96.70;;;;;;4962809;28;20053;-73
2023/04/20 00:39:25;;;;;;;2.30;1.70;;;15.20;96.70;;;;;;4952837;28;20609;-73
2023/04/20 00:41:54;;;;;;;2.65;1.85;;;15.10;96.70;;;;;;4967361;28;20160;-73
2023/04/20 00:44:22;;;;;;;2.00;1.80;;;15.00;96.70;;;;;;4966516;28;20050;-72
2023/04/20 00:46:53;;;;;;;2.50;2.00;;;15.00;96.70;;;;;;4967392;28;20803;-73
2023/04/20 00:49:22;;;;;;;2.00;1.67;;;15.00;96.70;;;;;;4965771;28;20050;-73
2023/04/20 00:51:50;;;;;;;2.13;1.67;;;15.00;96.70;;;;;;4966038;28;20050;-73
2023/04/20 00:54:19;;;;;;;1.75;1.48;;;15.00;96.70;;;;;;4965603;28;20054;-72
2023/04/20 00:56:49;;;;;;;3.55;1.65;;;14.90;96.70;;;;;;4974361;28;20061;-72
2023/04/20 00:59:17;;;;;;;3.05;2.00;;;14.90;96.70;;;;;;4949537;28;20148;-72
2023/04/20 01:01:47;;;;;;;2.58;1.80;;;14.80;96.70;;;;;;4965320;28;20054;-72
2023/04/20 01:04:15;;;;;;;1.75;1.38;;;14.80;96.70;;;;;;4966017;28;20135;-73
2023/04/20 01:06:44;;;;;;;2.70;1.42;;;14.80;96.70;;;;;;4961753;28;20081;-72
2023/04/20 01:09:12;;;;;;;2.25;1.70;;;14.80;96.70;;;;;;4965284;28;20465;-73
2023/04/20 01:11:41;;;;;;;2.35;1.83;;;14.70;96.70;;;;;;4947930;28;20416;-73
2023/04/20 01:14:09;;;;;;;2.45;1.73;;;14.70;96.70;;;;;;4966249;28;20042;-73
2023/04/20 01:16:37;;;;;;;2.05;1.42;;;14.70;96.70;;;;;;4948766;28;20055;-73
2023/04/20 01:19:05;;;;;;;3.03;2.13;;;14.60;96.70;;;;;;4966504;28;20058;-72
2023/04/20 01:21:33;;;;;;;2.67;1.70;;;14.70;96.70;;;;;;4965974;28;20046;-72
2023/04/20 01:24:03;;;;;;;2.88;1.92;;;14.80;96.70;;;;;;4964404;28;20046;-72
2023/04/20 01:26:32;;;;;;;3.28;1.75;;;14.70;96.70;;;;;;4967427;28;20161;-72
2023/04/20 01:29:00;;;;;;;2.72;1.80;;;14.40;96.70;;;;;;4948992;28;20063;-72
2023/04/20 01:31:28;;;;;;;2.95;1.92;;;14.50;96.70;;;;;;4964722;28;20054;-73
2023/04/20 01:33:58;;;;;;;4.28;1.70;;;14.60;96.70;;;;;;4946704;28;20045;-72
2023/04/20 01:36:25;;;;;;;2.28;1.48;;;14.60;96.70;;;;;;4965440;28;20047;-72
2023/04/20 01:38:54;;;;;;;3.72;1.83;;;14.60;96.70;;;;;;4963759;28;20109;-72
2023/04/20 01:41:23;;;;;;;2.78;1.90;;;14.60;96.70;;;;;;4965512;28;20133;-72
2023/04/20 01:43:51;;;;;;;2.83;1.75;;;14.50;96.70;;;;;;4963908;28;20154;-71
2023/04/20 01:46:19;;;;;;;2.60;1.73;;;14.40;96.70;;;;;;4965624;28;20062;-72
2023/04/20 01:48:46;;;;;;;1.73;1.60;;;14.40;96.70;;;;;;4964355;28;20109;-71
2023/04/20 01:51:14;;;;;;;1.98;1.70;;;14.40;96.70;;;;;;4964296;28;20069;-72
2023/04/20 01:53:42;;;;;;;3.00;1.95;;;14.30;96.70;;;;;;4949256;28;20049;-72
2023/04/20 01:56:10;;;;;;;3.00;1.83;;;14.30;96.70;;;;;;4964915;28;20166;-72
2023/04/20 01:58:39;;;;;;;2.83;1.73;;;14.20;96.70;;;;;;4948228;28;20078;-72
2023/04/20 02:01:07;;;;;;;2.85;2.00;;;14.30;96.70;;;;;;4948077;28;20074;-72
2023/04/20 02:03:35;;;;;;;2.22;1.67;;;14.30;96.70;;;;;;4964678;28;20129;-72
2023/04/20 02:06:03;;;;;;;2.33;1.80;;;14.20;96.70;;;;;;4964608;28;20893;-72
2023/04/20 02:08:32;;;;;;;2.55;1.83;;;14.20;96.70;;;;;;4948297;28;20051;-72
2023/04/20 02:11:00;;;;;;;3.60;2.35;;;14.30;96.70;;;;;;4964219;28;20489;-71
2023/04/20 02:13:28;;;;;;;3.08;2.00;;;14.20;96.70;;;;;;4964323;28;20094;-72
2023/04/20 02:15:57;;;;;;;2.47;1.95;;;14.20;96.70;;;;;;4963774;28;20047;-72
2023/04/20 02:18:25;;;;;;;5.15;2.28;;;14.20;96.70;;;;;;4948059;28;20043;-72
2023/04/20 02:20:53;;;;;;;3.03;2.10;;;14.30;96.70;;;;;;4966041;28;20054;-72
2023/04/20 02:23:21;;;;;;;3.35;2.00;;;14.20;96.70;;;;;;4948190;28;20501;-72
2023/04/20 02:25:49;;;;;;;3.67;2.33;;;14.10;96.70;;;;;;4964087;28;20042;-72
2023/04/20 02:28:16;;;;;;;5.18;2.15;;;14.10;96.70;;;;;;4964264;28;20109;-71
2023/04/20 02:30:44;;;;;;;3.40;2.17;;;14.10;96.70;;;;;;4963512;28;20055;-72
2023/04/20 02:33:14;;;;;;;2.55;2.05;;;14.10;96.70;;;;;;4964824;28;20045;-72
2023/04/20 02:35:41;;;;;;;2.33;2.10;;;13.90;96.70;;;;;;4964220;28;20413;-72
2023/04/20 02:38:10;;;;;;;2.53;1.98;;;13.80;96.70;;;;;;4962501;28;20050;-72
2023/04/20 02:40:38;;;;;;;3.15;1.75;;;13.60;96.70;;;;;;4964674;28;20322;-70
2023/04/20 02:43:07;;;;;;;3.15;1.63;;;13.80;96.70;;;;;;4963622;28;20061;-72
2023/04/20 02:45:35;;;;;;;2.45;1.67;;;13.90;96.70;;;;;;4962709;28;20074;-72
2023/04/20 02:48:04;;;;;;;2.35;1.27;;;13.80;96.70;;;;;;4963698;28;20049;-72
2023/04/20 02:50:35;;;;;;;2.25;1.70;;;13.70;96.70;;;;;;4985350;28;20054;-72
2023/04/20 02:53:14;;;;;;;2.97;1.73;;;13.60;96.70;;;;;;4963028;28;20047;-72
2023/04/20 02:55:45;;;;;;;2.13;1.50;;;13.70;96.70;;;;;;4963119;28;20047;-72
2023/04/20 02:58:24;;;;;;;2.08;1.60;;;13.30;96.70;;;;;;4962460;28;20043;-71
2023/04/20 03:01:12;;;;;;;3.58;1.60;;;13.30;96.70;;;;;;4962813;28;20576;-72
2023/04/20 03:03:40;;;;;;;4.30;1.70;;;13.60;96.70;;;;;;4947256;28;20058;-72
2023/04/20 03:06:12;;;;;;;3.95;1.58;;;13.60;96.70;;;;;;4963441;28;20055;-72
2023/04/20 03:08:45;;;;;;;2.25;1.58;;;13.60;96.70;;;;;;4984796;28;20054;-71
2023/04/20 03:11:33;;;;;;;2.72;1.38;;;13.60;96.70;;;;;;4942539;28;20043;-72
2023/04/20 03:14:01;;;;;;;2.75;1.50;;;13.70;96.70;;;;;;4947438;28;20053;-72
2023/04/20 03:16:29;;;;;;;1.95;1.40;;;13.60;96.70;;;;;;4946801;28;20039;-72
2023/04/20 03:18:58;;;;;;;2.75;1.42;;;13.70;96.70;;;;;;4961750;28;20666;-72
2023/04/20 03:21:27;;;;;;;1.77;1.10;;;13.80;96.70;;;;;;4962726;28;20074;-72
2023/04/20 03:23:55;;;;;;;2.70;1.58;;;13.70;96.70;;;;;;4981514;28;20062;-71
2023/04/20 03:26:24;;;;;;;2.25;1.50;;;13.60;96.70;;;;;;4964763;28;20038;-71
2023/04/20 03:29:14;;;;;;;2.40;1.40;;;13.40;96.70;;;;;;4950532;28;20155;-72
2023/04/20 03:31:43;;;;;;;2.25;1.60;;;13.40;96.70;;;;;;4962540;28;20093;-72
2023/04/20 03:34:11;;;;;;;1.73;1.45;;;13.20;96.70;;;;;;4962507;28;20275;-71
2023/04/20 03:36:41;;;;;;;1.70;1.23;;;13.00;96.70;;;;;;4947241;28;20042;-72
2023/04/20 03:39:08;;;;;;;3.50;1.38;;;12.90;96.70;;;;;;4962329;28;20497;-71
2023/04/20 03:41:38;;;;;;;1.52;1.10;;;13.00;96.70;;;;;;4962487;28;20043;-71
2023/04/20 03:44:06;;;;;;;1.60;1.45;;;13.10;96.70;;;;;;4963544;28;21826;-72
2023/04/20 03:46:35;;;;;;;3.95;1.60;;;13.20;96.70;;;;;;4961110;28;20060;-71
2023/04/20 03:49:03;;;;;;;2.40;1.40;;;13.20;96.70;;;;;;4961820;28;20927;-71
2023/04/20 03:51:31;;;;;;;1.58;1.30;;;13.10;96.70;;;;;;4946770;28;20039;-71
2023/04/20 03:54:00;;;;;;;1.77;1.33;;;13.20;96.70;;;;;;4964077;28;20520;-71
2023/04/20 03:56:29;;;;;;;1.65;1.02;;;13.30;96.70;;;;;;4963636;28;20108;-72
2023/04/20 03:58:57;;;;;;;1.88;1.10;;;13.30;96.70;;;;;;4961434;28;20055;-71
2023/04/20 04:01:26;;;;;;;2.10;1.45;;;13.20;96.70;;;;;;4962214;28;20315;-71
2023/04/20 04:03:54;;;;;;;2.65;1.40;;;13.20;96.70;;;;;;4961418;28;20061;-72
2023/04/20 04:06:22;;;;;;;2.13;1.30;;;13.30;96.70;;;;;;4946091;28;20051;-70
2023/04/20 04:08:51;;;;;;;1.40;1.20;;;13.30;96.70;;;;;;4980201;28;20050;-71
2023/04/20 04:11:45;;;;;;;2.20;1.30;;;13.30;96.70;;;;;;4961973;28;20070;-71
2023/04/20 04:14:14;;;;;;;1.77;1.58;;;13.20;96.70;;;;;;4962867;28;20050;-72
2023/04/20 04:16:42;;;;;;;2.20;1.33;;;13.10;96.70;;;;;;4946542;28;20039;-72
2023/04/20 04:19:11;;;;;;;2.47;1.75;;;13.10;96.70;;;;;;4964551;28;20034;-71
2023/04/20 04:21:40;;;;;;;3.15;1.60;;;13.20;96.70;;;;;;4961085;28;20407;-71
2023/04/20 04:24:08;;;;;;;2.58;1.67;;;13.30;96.70;;;;;;4961715;28;20043;-71
2023/04/20 04:26:44;;;;;;;4.45;1.70;;;13.30;96.70;;;;;;4961582;28;20505;-71
2023/04/20 04:29:12;;;;;;;2.33;1.60;;;13.30;96.70;;;;;;4945787;28;20046;-71
2023/04/20 04:31:40;;;;;;;3.28;1.60;;;13.30;96.70;;;;;;4962684;28;20458;-71
2023/04/20 04:34:17;;;;;;;2.85;2.05;;;13.30;96.70;;;;;;4960841;28;20119;-71
2023/04/20 04:36:49;;;;;;;2.90;1.70;;;13.30;96.70;;;;;;4983043;28;20039;-71
2023/04/20 04:39:23;;;;;;;3.33;1.77;;;13.00;96.70;;;;;;4961889;28;20089;-71
2023/04/20 04:42:05;;;;;;;2.88;1.50;;;12.80;96.70;;;;;;4959198;28;20042;-72
2023/04/20 04:44:39;;;;;;;2.35;1.48;;;12.80;96.70;;;;;;4942151;28;20053;-72
2023/04/20 04:47:11;;;;;;;4.22;1.98;;;13.00;96.70;;;;;;4960256;28;20043;-71
2023/04/20 04:49:41;;;;;;;2.63;1.70;;;13.10;96.70;;;;;;4961366;28;20051;-72
2023/04/20 04:52:10;;;;;;;2.40;2.03;;;13.10;96.70;;;;;;4945966;28;20058;-71
2023/04/20 04:54:37;;;;;;;3.40;2.00;;;13.10;96.70;;;;;;4945347;28;20054;-72
2023/04/20 04:57:07;;;;;;;2.72;1.92;;;13.00;96.70;;;;;;4962863;28;20050;-71
2023/04/20 04:59:35;;;;;;;4.00;1.88;;;12.70;96.70;;;;;;4962532;28;20042;-71
2023/04/20 05:02:02;;;;;;;2.42;1.80;;;12.80;96.70;;;;;;4959913;28;20453;-71
2023/04/20 05:04:30;;;;;;;2.47;1.65;;;12.90;96.70;;;;;;4962291;28;20042;-72
2023/04/20 05:06:58;;;;;;;1.83;1.60;;;12.90;96.70;;;;;;4962855;28;20034;-71
2023/04/20 05:09:32;;;;;;;2.65;1.80;;;13.00;96.70;;;;;;4963244;28;20050;-72
2023/04/20 05:12:00;;;;;;;4.32;1.73;;;13.10;96.70;;;;;;4959407;28;20070;-71
2023/04/20 05:14:30;;;;;;;2.58;1.70;;;13.10;96.70;;;;;;4963660;28;20047;-71
2023/04/20 05:17:07;;;;;;;3.75;2.10;;;13.10;96.70;;;;;;4961977;28;20054;-71
2023/04/20 05:19:35;;;;;;;5.25;2.40;;;13.10;96.70;;;;;;4963278;28;20492;-71
2023/04/20 05:22:02;;;;;;;2.63;2.00;;;13.10;96.70;;;;;;4963378;28;20078;-72
2023/04/20 05:24:30;;;;;;;3.42;2.08;;;13.20;96.70;;;;;;4966288;28;20038;-71
2023/04/20 05:26:58;;;;;;;3.28;1.90;;;13.20;96.70;;;;;;4964547;28;20714;-71
2023/04/20 05:29:26;;;;;;;3.50;2.22;;;13.30;96.70;;;;;;4966703;28;20826;-71
2023/04/20 05:31:55;;;;;;;3.22;2.70;;;13.20;96.70;;;;;;4965173;28;20049;-71
2023/04/20 05:34:23;;;;;;;3.65;2.13;;;13.10;96.70;;;;;;4963744;28;20046;-71
2023/04/20 05:36:51;;;;;;;3.15;2.15;;;13.00;96.70;;;;;;4966454;28;20046;-71
2023/04/20 05:39:19;;;;;;;2.67;2.08;;;13.10;96.70;;;;;;4964846;28;20051;-71
2023/04/20 05:41:47;;;;;;;5.35;2.22;;;13.10;96.70;;;;;;4967378;28;20097;-71
2023/04/20 05:44:15;;;;;;;4.82;3.40;;;13.00;96.70;;;;;;4965606;28;20039;-74
2023/04/20 05:46:43;;;;;;;5.25;3.30;;;13.10;96.70;;;;;;4964443;28;20070;-72
2023/04/20 05:49:13;;;;;;;3.88;3.42;;;13.20;96.70;;;;;;4948779;28;20165;-72
2023/04/20 05:51:40;;;;;;;6.78;3.65;;;13.30;96.70;;;;;;4964751;28;20416;-72
2023/04/20 05:54:09;;;;;;;5.38;3.30;;;13.20;96.70;;;;;;4965480;28;20109;-74
2023/04/20 05:56:37;;;;;;;6.00;3.33;;;13.30;96.70;;;;;;4964725;28;20045;-73
2023/04/20 05:59:04;;;;;;;5.80;3.15;;;13.20;96.70;;;;;;4965330;28;20039;-71
2023/04/20 06:01:32;;;;;;;4.53;3.22;;;13.10;96.70;;;;;;4965491;28;20042;-71
2023/04/20 06:04:00;;;;;;;4.25;3.25;;;13.10;96.70;;;;;;4956837;28;20062;-70
2023/04/20 06:06:31;;;;;;;4.88;3.47;;;13.20;96.70;;;;;;4963372;28;20086;-71
2023/04/20 06:08:59;;;;;;;5.03;4.18;;;13.30;96.70;;;;;;4964928;28;20042;-69
2023/04/20 06:11:27;;;;;;;9.10;4.32;;;13.50;96.70;;;;;;4966349;28;20817;-69
2023/04/20 06:13:55;;;;;;;5.18;3.95;;;13.50;96.70;;;;;;4964126;28;20051;-69
2023/04/20 06:16:23;;;;;;;3.65;3.33;;;13.60;96.70;;;;;;4963559;28;20504;-70
2023/04/20 06:18:50;;;;;;;5.43;3.75;;;13.50;96.70;;;;;;4964330;28;20042;-70
2023/04/20 06:21:19;;;;;;;4.82;3.35;;;13.50;96.70;;;;;;4965762;28;20101;-69
2023/04/20 06:23:48;;;;;;;5.22;3.08;;;13.40;96.70;;;;;;4965336;28;20045;-70
2023/04/20 06:26:16;;;;;;;4.35;3.17;;;13.40;96.70;;;;;;4964546;28;20046;-69
2023/04/20 06:28:44;;;;;;;5.20;3.30;;;13.50;96.70;;;;;;4966886;28;20587;-69
2023/04/20 06:31:12;;;;;;;7.25;3.42;;;13.60;96.70;;;;;;4963515;28;20493;-69
2023/04/20 06:33:39;;;;;;;4.35;3.95;;;13.60;96.70;;;;;;4965407;28;20070;-69
2023/04/20 06:36:07;;;;;;;9.02;4.80;;;13.70;96.70;;;;;;4962918;28;20583;-69
2023/04/20 06:38:35;;;;;;;6.78;5.03;;;13.90;96.70;;;;;;4964924;28;20047;-69
2023/04/20 06:41:04;;;;;;;7.93;5.75;;;13.90;96.70;;;;;;4972807;28;20055;-70
2023/04/20 06:43:32;;;;;;;8.45;5.75;;;14.00;96.70;;;;;;4965538;28;20050;-71
2023/04/20 06:46:00;;;;;;;6.80;5.50;;;14.00;96.70;;;;;;4961764;28;20047;-71
2023/04/20 06:48:28;;;;;;;9.05;6.10;;;14.10;96.70;;;;;;4963756;28;20046;-70
2023/04/20 06:51:00;;;;;;;8.55;6.82;;;14.20;96.70;;;;;;4963658;28;20050;-69
2023/04/20 06:53:27;;;;;;;7.03;5.90;;;14.20;96.70;;;;;;4962803;28;20547;-73
2023/04/20 06:55:56;;;;;;;6.70;5.85;;;14.30;96.70;;;;;;4965080;28;20042;-69
2023/04/20 06:58:25;;;;;;;7.45;5.88;;;14.40;96.70;;;;;;4947226;28;20043;-69
2023/04/20 07:00:52;;;;;;;5.32;4.28;;;14.40;96.70;;;;;;4964472;28;20077;-69
2023/04/20 07:03:20;;;;;;;6.47;4.35;;;14.50;96.70;;;;;;4964562;28;20467;-69
2023/04/20 07:05:48;;;;;;;5.40;4.40;;;14.60;96.70;;;;;;4964154;28;20065;-69
2023/04/20 07:08:16;;;;;;;6.90;4.38;;;14.50;96.70;;;;;;4962716;28;20058;-69
2023/04/20 07:10:44;;;;;;;5.20;3.88;;;14.60;96.70;;;;;;4947660;28;20051;-69
2023/04/20 07:13:11;;;;;;;4.15;3.75;;;14.60;96.70;;;;;;4962957;28;20408;-71
2023/04/20 07:15:42;;;;;;;4.05;3.65;;;14.70;96.70;;;;;;4964657;28;21722;-71
2023/04/20 07:18:10;;;;;;;4.00;3.53;;;14.70;96.70;;;;;;4964777;28;20043;-70
2023/04/20 07:20:38;;;;;;;4.70;3.63;;;14.80;96.70;;;;;;4960901;28;20126;-70
2023/04/20 07:23:05;;;;;;;4.18;3.03;;;14.80;96.70;;;;;;4972575;28;20051;-70
2023/04/20 07:25:33;;;;;;;4.10;3.40;;;14.90;96.70;;;;;;4962318;28;20050;-70
2023/04/20 07:28:00;;;;;;;5.88;3.65;;;15.00;96.70;;;;;;4966506;28;20367;-70
2023/04/20 07:30:30;;;;;;;4.80;3.88;;;15.10;96.70;;;;;;4962164;28;20113;-70
2023/04/20 07:32:59;;;;;;;4.65;4.00;;;15.10;96.70;;;;;;4960832;28;20596;-71
2023/04/20 07:35:27;;;;;;;6.50;4.20;;;15.20;96.70;;;;;;4963263;28;20133;-70
2023/04/20 07:37:55;;;;;;;4.88;4.20;;;15.30;96.70;;;;;;4963623;28;20070;-71
2023/04/20 07:40:23;;;;;;;5.65;4.63;;;15.30;96.70;;;;;;4963661;28;20034;-71
2023/04/20 07:42:50;;;;;;;4.20;3.80;;;15.30;96.70;;;;;;4963619;28;20153;-71
2023/04/20 07:45:20;;;;;;;4.65;3.85;;;15.30;96.70;;;;;;4962305;28;20042;-71
2023/04/20 07:47:50;;;;;;;4.90;3.78;;;15.40;96.70;;;;;;4962455;28;20587;-71
2023/04/20 07:50:20;;;;;;;4.53;3.80;;;15.40;96.70;;;;;;4947087;28;20055;-70
2023/04/20 07:52:48;;;;;;;4.63;4.07;;;15.50;96.70;;;;;;4945372;28;20138;-70
2023/04/20 07:55:16;;;;;;;3.40;2.88;;;15.50;96.70;;;;;;4958731;28;20716;-69
2023/04/20 07:57:44;;;;;;;4.43;3.22;;;15.50;96.70;;;;;;4962178;28;20070;-69
2023/04/20 08:00:13;;;;;;;5.80;3.63;;;15.60;96.70;;;;;;4963750;28;20051;-69
2023/04/20 08:02:44;;;;;;;3.72;3.33;;;15.60;96.70;;;;;;4961880;28;20457;-69
2023/04/20 08:05:12;;;;;;;3.17;2.88;;;15.70;96.70;;;;;;4963185;28;20051;-70
2023/04/20 08:07:41;;;;;;;3.88;3.10;;;15.80;96.70;;;;;;4961724;28;20046;-70
2023/04/20 08:10:10;;;;;;;4.72;3.42;;;15.90;96.70;;;;;;4964068;28;20161;-70
2023/04/20 08:12:38;;;;;;;3.53;3.08;;;15.90;96.70;;;;;;4962251;28;20043;-70
2023/04/20 08:15:08;;;;;;;5.97;3.42;;;15.90;96.70;;;;;;4963406;28;20844;-70
2023/04/20 08:17:35;;;;;;;5.10;3.13;;;15.90;96.70;;;;;;4963218;28;20043;-70
2023/04/20 08:20:05;;;;;;;4.05;2.60;;;16.10;96.70;;;;;;4961295;28;20047;-70
2023/04/20 08:22:32;;;;;;;2.85;2.55;;;16.10;96.70;;;;;;4962715;28;20062;-70
2023/04/20 08:25:02;;;;;;;3.80;3.13;;;16.20;96.70;;;;;;4965018;28;20054;-73
2023/04/20 08:27:30;;;;;;;6.25;3.40;;;16.30;96.70;;;;;;4963478;28;20045;-70
2023/04/20 08:29:58;;;;;;;5.57;2.83;;;16.50;96.70;;;;;;4964084;28;20101;-70
2023/04/20 08:32:25;;;;;;;3.78;3.13;;;16.50;96.70;;;;;;4962842;28;20047;-70
2023/04/20 08:34:55;;;;;;;3.33;3.03;;;16.50;96.70;;;;;;4961934;28;20082;-71
2023/04/20 08:37:24;;;;;;;4.32;3.60;;;16.50;96.70;;;;;;4962969;28;20073;-70
2023/04/20 08:39:52;;;;;;;3.60;3.30;;;16.60;96.70;;;;;;4963605;28;20043;-69
2023/04/20 08:42:21;;;;;;;3.95;3.30;;;16.70;96.70;;;;;;4964523;28;20055;-70
2023/04/20 08:44:49;;;;;;;4.68;3.30;;;16.70;96.70;;;;;;4964478;28;20051;-70
2023/04/20 08:47:16;;;;;;;3.92;3.30;;;16.80;96.70;;;;;;4962912;28;20572;-70
2023/04/20 08:49:45;;;;;;;3.08;2.78;;;16.80;96.70;;;;;;4964013;28;20046;-70
2023/04/20 08:52:14;;;;;;;5.70;3.50;;;16.90;96.70;;;;;;4963091;28;20591;-69
2023/04/20 08:54:42;;;;;;;5.22;3.45;;;17.00;96.70;;;;;;4962200;28;20568;-69
2023/04/20 08:57:25;;;;;;;4.22;3.13;;;17.00;96.70;;;;;;4961264;28;20429;-69
2023/04/20 08:59:53;;;;;;;4.35;3.45;;;17.10;96.70;;;;;;4957384;28;20058;-70
2023/04/20 09:02:21;;;;;;;5.28;3.85;;;17.10;96.70;;;;;;4966712;28;20129;-69
2023/04/20 09:05:00;;;;;;;4.40;3.63;;;17.10;96.70;;;;;;4967376;28;20078;-70
2023/04/20 09:07:28;;;;;;;4.28;3.53;;;16.90;96.70;;;;;;4965413;28;20072;-70
2023/04/20 09:09:57;;;;;;;5.40;3.88;;;16.90;96.70;;;;;;4965752;28;20141;-70
2023/04/20 09:12:26;;;;;;;5.35;3.80;;;16.80;96.70;;;;;;4967241;28;20134;-69
2023/04/20 09:14:55;;;;;;;4.40;3.55;;;16.90;96.70;;;;;;4967357;28;20057;-70
2023/04/20 09:17:33;;;;;;;4.18;3.42;;;17.00;96.70;;;;;;4964754;28;20039;-70
2023/04/20 09:20:03;;;;;;;4.63;3.40;;;17.00;96.70;;;;;;4965096;28;20043;-70
2023/04/20 09:22:32;;;;;;;4.97;3.88;;;17.10;96.70;;;;;;4966006;28;20057;-70
2023/04/20 09:25:10;;;;;;;5.07;3.42;;;17.20;96.70;;;;;;4966833;28;20065;-70
2023/04/20 09:27:39;;;;;;;4.70;3.85;;;17.30;96.70;;;;;;4966679;28;20047;-70
2023/04/20 09:30:08;;;;;;;4.57;3.70;;;17.30;96.70;;;;;;4965729;28;20113;-70
2023/04/20 09:32:36;;;;;;;4.70;3.67;;;17.40;96.70;;;;;;4963564;28;20413;-70
2023/04/20 09:35:06;;;;;;;4.70;3.47;;;17.50;96.70;;;;;;4965469;28;20049;-70
2023/04/20 09:37:34;;;;;;;5.18;3.13;;;17.70;96.70;;;;;;4966039;28;20047;-70
2023/04/20 09:40:11;;;;;;;5.45;3.42;;;17.80;96.70;;;;;;4964004;28;20039;-70
2023/04/20 09:42:42;;;;;;;3.75;2.97;;;17.90;96.70;;;;;;4964886;28;20754;-70
2023/04/20 09:45:13;;;;;;;3.65;3.10;;;17.90;96.70;;;;;;4974360;28;20046;-70
2023/04/20 09:47:57;;;;;;;4.05;3.08;;;18.00;96.70;;;;;;4964450;28;20496;-70
2023/04/20 09:50:25;;;;;;;4.07;3.03;;;17.90;96.70;;;;;;4964221;28;20054;-69
2023/04/20 09:53:12;;;;;;;;;;;18.10;96.70;;;;;;4963760;28;20054;-70
2023/04/20 09:55:44;;;;;;;3.13;2.78;;;18.20;96.70;;;;;;4958894;28;20418;-69
2023/04/20 09:58:16;;;;;;;3.17;2.88;;;18.30;96.70;;;;;;4964916;28;20039;-70
2023/04/20 10:00:44;;;;;;;3.80;2.72;;;18.50;96.70;;;;;;4964399;28;20054;-69
2023/04/20 10:03:15;;;;;;;2.83;2.45;;;18.90;96.70;;;;;;4947034;28;20531;-70
2023/04/20 10:05:44;;;;;;;3.85;2.88;;;19.10;96.70;;;;;;4965740;28;20496;-70
2023/04/20 10:08:12;;;;;;;3.20;2.78;;;19.10;96.70;;;;;;4965322;28;20046;-69
2023/04/20 10:10:45;;;;;;;2.83;2.45;;;19.00;96.70;;;;;;4965851;28;20053;-70
2023/04/20 10:13:18;;;;;;;4.10;3.28;;;19.50;96.70;;;;;;4948492;28;20594;-69
2023/04/20 10:15:46;;;;;;;3.80;2.22;;;19.80;96.70;;;;;;4964787;28;20134;-69
2023/04/20 10:18:18;;;;;;;3.83;2.60;;;20.20;96.70;;;;;;4966436;28;20062;-70
2023/04/20 10:20:46;;;;;;;3.00;2.78;;;20.40;96.70;;;;;;4965782;28;20070;-69
2023/04/20 10:23:15;;;;;;;2.55;2.35;;;20.30;96.70;;;;;;4964398;28;20454;-69
2023/04/20 10:25:53;;;;;;;3.03;2.60;;;20.30;96.70;;;;;;4964201;28;20057;-70
2023/04/20 10:28:23;;;;;;;2.60;2.40;;;20.30;96.70;;;;;;4972091;28;20057;-70
2023/04/20 10:30:52;;;;;;;2.88;2.63;;;20.30;96.70;;;;;;4974160;28;20101;-69
2023/04/20 10:33:21;;;;;;;3.00;2.63;;;20.30;96.70;;;;;;4963883;28;20049;-69
2023/04/20 10:35:51;;;;;;;3.67;2.47;;;20.60;96.70;;;;;;4948273;28;20047;-70
2023/04/20 10:38:29;;;;;;;2.97;2.67;;;20.60;96.70;;;;;;4946845;28;20164;-69
2023/04/20 10:41:04;;;;;;;3.65;2.25;;;20.80;96.70;;;;;;4949639;28;20487;-70
2023/04/20 10:43:42;;;;;;;3.58;2.60;;;20.90;96.70;;;;;;4964154;28;20050;-70
2023/04/20 10:46:17;;;;;;;3.15;2.55;;;21.20;96.70;;;;;;4964000;28;20046;-70
2023/04/20 10:48:55;;;;;;;2.30;2.10;;;21.30;96.70;;;;;;4957119;28;20133;-70
2023/04/20 10:51:24;;;;;;;2.65;2.22;;;21.50;96.70;;;;;;4962257;28;20047;-70
2023/04/20 10:54:00;;;;;;;2.50;2.30;;;21.60;96.70;;;;;;4967796;28;20039;-71
2023/04/20 10:56:36;;;;;;;2.28;2.08;;;21.40;96.70;;;;;;4961768;28;20126;-70
2023/04/20 10:59:10;;;;;;;2.72;2.33;;;21.00;96.70;;;;;;4957143;28;20105;-70
2023/04/20 11:01:38;;;;;;;3.33;2.40;;;20.60;96.70;;;;;;4964319;28;20057;-70
2023/04/20 11:04:09;;;;;;;3.92;2.38;;;20.30;96.70;;;;;;4963266;28;20520;-70
2023/04/20 11:06:38;;;;;;;2.42;2.05;;;20.30;96.70;;;;;;4962020;28;20137;-71
2023/04/20 11:09:19;;;;;;;2.92;2.30;;;20.40;96.70;;;;;;4956087;28;20576;-72
2023/04/20 11:11:58;;;;;;;2.97;2.17;;;20.30;96.70;;;;;;4964703;28;20859;-71
2023/04/20 11:14:28;;;;;;;2.88;1.92;;;20.30;96.70;;;;;;4964835;28;20451;-71
2023/04/20 11:16:55;;;;;;;2.38;2.17;;;20.30;96.70;;;;;;4963923;28;20050;-70
2023/04/20 11:19:25;;;;;;;3.53;2.25;;;20.40;96.70;;;;;;4963559;28;20050;-71
2023/04/20 11:21:54;;;;;;;3.30;2.83;;;20.20;96.70;;;;;;4976608;28;20066;-71
2023/04/20 11:24:23;;;;;;;3.13;2.65;;;19.90;96.70;;;;;;4962623;28;20074;-70
2023/04/20 11:26:56;;;;;;;4.35;2.92;;;19.70;96.70;;;;;;4962849;28;20560;-71
2023/04/20 11:29:31;;;;;;;3.10;2.80;;;19.70;96.70;;;;;;4961035;28;21074;-71
2023/04/20 11:32:01;;;;;;;2.92;2.65;;;19.70;96.70;;;;;;4961821;28;20128;-70
2023/04/20 11:34:29;;;;;;;4.20;2.80;;;19.60;96.70;;;;;;4962775;28;20122;-71
2023/04/20 11:37:03;;;;;;;3.20;2.17;;;19.60;96.70;;;;;;4958628;28;20347;-70
2023/04/20 11:39:32;;;;;;;5.47;3.13;;;19.60;96.70;;;;;;4963969;28;20711;-70
2023/04/20 11:42:00;;;;;;;2.90;2.47;;;19.50;96.70;;;;;;4961122;28;20043;-70
2023/04/20 11:44:30;;;;;;;2.95;2.65;;;19.40;96.70;;;;;;4959965;28;20054;-71
2023/04/20 11:46:58;;;;;;;2.60;2.40;;;19.30;96.70;;;;;;4963732;28;20050;-70
2023/04/20 11:49:28;;;;;;;2.58;2.13;;;19.30;96.70;;;;;;4964727;28;20133;-70
2023/04/20 11:51:56;;;;;;;4.55;2.38;;;19.30;96.70;;;;;;4962512;28;20055;-70
2023/04/20 11:54:26;;;;;;;3.53;2.40;;;19.30;96.70;;;;;;4956221;28;20050;-70
2023/04/20 11:56:54;;;;;;;4.50;2.75;;;19.40;96.70;;;;;;4962338;28;20047;-70
2023/04/20 11:59:21;;;;;;;3.00;2.70;;;19.40;96.70;;;;;;4963885;28;20503;-70
2023/04/20 12:01:51;;;;;;;3.03;2.33;;;19.40;96.70;;;;;;4961328;28;20209;-71
2023/04/20 12:04:19;;;;;;;4.05;2.90;;;19.50;96.70;;;;;;4962828;28;20054;-70
2023/04/20 12:06:47;;;;;;;4.13;2.70;;;19.50;96.70;;;;;;4962248;28;20057;-69
2023/04/20 12:09:15;;;;;;;2.63;2.35;;;19.70;96.70;;;;;;4960565;28;20475;-69
2023/04/20 12:11:43;;;;;;;3.65;2.90;;;20.10;96.70;;;;;;4960132;28;20039;-69
2023/04/20 12:14:11;;;;;;;3.13;2.70;;;20.40;96.70;;;;;;4963070;28;20715;-69
2023/04/20 12:16:39;;;;;;;4.43;3.75;;;20.30;96.70;;;;;;4969098;28;20061;-70
2023/04/20 12:19:09;;;;;;;3.88;3.28;;;20.10;96.70;;;;;;4961834;28;20142;-69
2023/04/20 12:21:37;;;;;;;6.88;3.60;;;20.10;96.70;;;;;;4963366;28;20038;-69
2023/04/20 12:24:30;;;;;;;4.20;3.30;;;20.40;96.70;;;;;;4961317;28;20097;-69
2023/04/20 12:26:58;;;;;;;3.40;3.00;;;20.40;96.70;;;;;;4957546;28;20082;-69
2023/04/20 12:29:26;;;;;;;3.08;2.83;;;20.50;96.70;;;;;;4963741;28;20094;-69
2023/04/20 12:31:54;;;;;;;3.63;3.20;;;20.80;96.70;;;;;;4963366;28;20052;-70
2023/04/20 12:34:23;;;;;;;3.67;3.38;;;20.80;96.70;;;;;;4965460;28;20070;-69
2023/04/20 12:36:51;;;;;;;4.15;2.60;;;20.70;96.70;;;;;;4958172;28;20166;-70
2023/04/20 12:39:19;;;;;;;2.85;2.60;;;20.70;96.70;;;;;;4962977;28;20045;-69
2023/04/20 12:41:48;;;;;;;4.28;2.95;;;20.60;96.70;;;;;;4969046;28;20027;-69
2023/04/20 12:44:16;;;;;;;3.67;2.95;;;20.60;96.70;;;;;;4965544;28;20050;-70
2023/04/20 12:46:45;;;;;;;2.85;2.65;;;20.80;96.70;;;;;;4965184;28;20042;-70
2023/04/20 12:49:13;;;;;;;3.25;2.38;;;21.00;96.70;;;;;;4953178;28;20691;-70
2023/04/20 12:51:43;;;;;;;2.78;2.47;;;21.10;96.70;;;;;;4958626;28;20504;-70
2023/04/20 12:54:11;;;;;;;4.10;2.88;;;21.10;96.70;;;;;;4949423;28;20085;-69
2023/04/20 12:56:39;;;;;;;3.75;2.40;;;21.00;96.70;;;;;;4949200;28;20116;-70
2023/04/20 12:59:07;;;;;;;3.28;2.25;;;21.10;96.70;;;;;;4949095;28;20051;-71
2023/04/20 13:01:35;;;;;;;3.20;2.33;;;21.20;96.70;;;;;;4964658;28;20046;-70